sensor_id;sensor_type;location;lat;lon;timestamp;P1;durP1;ratioP1;P2;durP2;ratioP2
74213;SDS011;62576;55.694;37.494;2024-01-25T00:00:49;24.73;;;7.90;;
74213;SDS011;62576;55.694;37.494;2024-01-25T00:03:19;22.83;;;8.05;;
74213;SDS011;62576;55.694;37.494;2024-01-25T00:05:50;23.10;;;7.72;;
74213;SDS011;62576;55.694;37.494;2024-01-25T00:08:20;24.40;;;8.63;;
74213;SDS011;62576;55.694;37.494;2024-01-25T00:10:50;23.10;;;7.82;;
74213;SDS011;62576;55.694;37.494;2024-01-25T00:13:20;20.60;;;6.78;;
74213;SDS011;62576;55.694;37.494;2024-01-25T00:15:50;26.02;;;7.93;;
74213;SDS011;62576;55.694;37.494;2024-01-25T00:18:20;23.08;;;8.13;;
74213;SDS011;62576;55.694;37.494;2024-01-25T00:20:52;27.15;;;8.57;;
74213;SDS011;62576;55.694;37.494;2024-01-25T00:23:21;23.30;;;7.95;;
74213;SDS011;62576;55.694;37.494;2024-01-25T00:25:51;25.67;;;8.45;;
74213;SDS011;62576;55.694;37.494;2024-01-25T00:28:21;24.88;;;8.27;;
74213;SDS011;62576;55.694;37.494;2024-01-25T00:30:51;23.85;;;8.00;;
74213;SDS011;62576;55.694;37.494;2024-01-25T00:33:21;21.83;;;8.00;;
74213;SDS011;62576;55.694;37.494;2024-01-25T00:35:53;24.63;;;8.50;;
74213;SDS011;62576;55.694;37.494;2024-01-25T00:38:23;20.77;;;7.82;;
74213;SDS011;62576;55.694;37.494;2024-01-25T00:40:50;24.42;;;8.00;;
74213;SDS011;62576;55.694;37.494;2024-01-25T00:43:20;25.50;;;8.77;;
74213;SDS011;62576;55.694;37.494;2024-01-25T00:45:50;24.65;;;8.20;;
74213;SDS011;62576;55.694;37.494;2024-01-25T00:48:20;25.35;;;8.05;;
74213;SDS011;62576;55.694;37.494;2024-01-25T00:50:50;20.80;;;7.55;;
74213;SDS011;62576;55.694;37.494;2024-01-25T00:53:22;24.10;;;8.13;;
74213;SDS011;62576;55.694;37.494;2024-01-25T00:55:52;22.25;;;8.10;;
74213;SDS011;62576;55.694;37.494;2024-01-25T00:58:22;20.42;;;7.85;;
74213;SDS011;62576;55.694;37.494;2024-01-25T01:00:52;22.50;;;7.20;;
74213;SDS011;62576;55.694;37.494;2024-01-25T01:03:23;24.00;;;8.07;;
74213;SDS011;62576;55.694;37.494;2024-01-25T01:05:53;16.25;;;6.07;;
74213;SDS011;62576;55.694;37.494;2024-01-25T01:08:25;22.52;;;7.72;;
74213;SDS011;62576;55.694;37.494;2024-01-25T01:10:55;20.10;;;7.38;;
74213;SDS011;62576;55.694;37.494;2024-01-25T01:13:25;24.63;;;7.93;;
74213;SDS011;62576;55.694;37.494;2024-01-25T01:15:55;20.33;;;7.13;;
74213;SDS011;62576;55.694;37.494;2024-01-25T01:18:24;22.27;;;7.38;;
74213;SDS011;62576;55.694;37.494;2024-01-25T01:20:54;22.77;;;7.15;;
74213;SDS011;62576;55.694;37.494;2024-01-25T01:23:26;19.40;;;6.80;;
74213;SDS011;62576;55.694;37.494;2024-01-25T01:25:55;21.30;;;7.90;;
74213;SDS011;62576;55.694;37.494;2024-01-25T01:28:25;19.40;;;7.10;;
74213;SDS011;62576;55.694;37.494;2024-01-25T01:30:55;19.45;;;6.78;;
74213;SDS011;62576;55.694;37.494;2024-01-25T01:33:25;22.35;;;6.80;;
74213;SDS011;62576;55.694;37.494;2024-01-25T01:35:55;17.98;;;7.10;;
74213;SDS011;62576;55.694;37.494;2024-01-25T01:38:32;17.63;;;5.57;;
74213;SDS011;62576;55.694;37.494;2024-01-25T01:41:02;19.33;;;6.60;;
74213;SDS011;62576;55.694;37.494;2024-01-25T01:43:31;17.95;;;6.03;;
74213;SDS011;62576;55.694;37.494;2024-01-25T01:46:03;19.85;;;6.43;;
74213;SDS011;62576;55.694;37.494;2024-01-25T01:48:33;13.20;;;4.65;;
74213;SDS011;62576;55.694;37.494;2024-01-25T01:51:03;17.00;;;6.30;;
74213;SDS011;62576;55.694;37.494;2024-01-25T01:53:34;17.75;;;5.55;;
74213;SDS011;62576;55.694;37.494;2024-01-25T01:56:01;19.35;;;7.28;;
74213;SDS011;62576;55.694;37.494;2024-01-25T01:58:31;18.75;;;5.88;;
74213;SDS011;62576;55.694;37.494;2024-01-25T02:01:01;19.25;;;5.53;;
74213;SDS011;62576;55.694;37.494;2024-01-25T02:03:31;18.23;;;6.55;;
74213;SDS011;62576;55.694;37.494;2024-01-25T02:06:01;17.27;;;5.95;;
74213;SDS011;62576;55.694;37.494;2024-01-25T02:08:31;15.48;;;5.97;;
74213;SDS011;62576;55.694;37.494;2024-01-25T02:11:03;19.08;;;6.22;;
74213;SDS011;62576;55.694;37.494;2024-01-25T02:13:33;17.73;;;6.00;;
74213;SDS011;62576;55.694;37.494;2024-01-25T02:16:03;18.42;;;5.95;;
74213;SDS011;62576;55.694;37.494;2024-01-25T02:18:33;16.75;;;5.78;;
74213;SDS011;62576;55.694;37.494;2024-01-25T02:21:03;14.68;;;5.47;;
74213;SDS011;62576;55.694;37.494;2024-01-25T02:23:34;14.25;;;5.05;;
74213;SDS011;62576;55.694;37.494;2024-01-25T02:26:03;15.88;;;5.60;;
74213;SDS011;62576;55.694;37.494;2024-01-25T02:28:33;15.50;;;5.15;;
74213;SDS011;62576;55.694;37.494;2024-01-25T02:31:04;16.13;;;6.05;;
74213;SDS011;62576;55.694;37.494;2024-01-25T02:33:33;20.08;;;5.50;;
74213;SDS011;62576;55.694;37.494;2024-01-25T02:36:04;18.67;;;6.20;;
74213;SDS011;62576;55.694;37.494;2024-01-25T02:38:35;17.25;;;6.22;;
74213;SDS011;62576;55.694;37.494;2024-01-25T02:41:05;18.48;;;5.72;;
74213;SDS011;62576;55.694;37.494;2024-01-25T02:43:42;18.02;;;6.72;;
74213;SDS011;62576;55.694;37.494;2024-01-25T02:46:12;16.33;;;5.78;;
74213;SDS011;62576;55.694;37.494;2024-01-25T02:48:42;18.90;;;6.45;;
74213;SDS011;62576;55.694;37.494;2024-01-25T02:51:12;14.30;;;5.13;;
74213;SDS011;62576;55.694;37.494;2024-01-25T02:53:44;16.85;;;5.35;;
74213;SDS011;62576;55.694;37.494;2024-01-25T02:56:13;17.52;;;4.97;;
74213;SDS011;62576;55.694;37.494;2024-01-25T02:58:43;17.52;;;5.45;;
74213;SDS011;62576;55.694;37.494;2024-01-25T03:01:13;20.98;;;6.15;;
74213;SDS011;62576;55.694;37.494;2024-01-25T03:03:43;19.40;;;5.70;;
74213;SDS011;62576;55.694;37.494;2024-01-25T03:06:13;14.20;;;4.90;;
74213;SDS011;62576;55.694;37.494;2024-01-25T03:08:44;12.57;;;4.68;;
74213;SDS011;62576;55.694;37.494;2024-01-25T03:11:14;18.85;;;5.90;;
74213;SDS011;62576;55.694;37.494;2024-01-25T03:13:44;18.30;;;6.38;;
74213;SDS011;62576;55.694;37.494;2024-01-25T03:16:14;13.23;;;5.15;;
74213;SDS011;62576;55.694;37.494;2024-01-25T03:18:44;15.43;;;6.00;;
74213;SDS011;62576;55.694;37.494;2024-01-25T03:21:14;16.38;;;5.57;;
74213;SDS011;62576;55.694;37.494;2024-01-25T03:23:45;16.40;;;5.47;;
74213;SDS011;62576;55.694;37.494;2024-01-25T03:26:15;14.57;;;5.65;;
74213;SDS011;62576;55.694;37.494;2024-01-25T03:28:45;15.85;;;5.28;;
74213;SDS011;62576;55.694;37.494;2024-01-25T03:31:15;9.98;;;4.00;;
74213;SDS011;62576;55.694;37.494;2024-01-25T03:33:44;14.77;;;5.72;;
74213;SDS011;62576;55.694;37.494;2024-01-25T03:36:14;14.23;;;4.80;;
74213;SDS011;62576;55.694;37.494;2024-01-25T03:38:46;14.60;;;5.18;;
74213;SDS011;62576;55.694;37.494;2024-01-25T03:41:15;14.23;;;5.25;;
74213;SDS011;62576;55.694;37.494;2024-01-25T03:43:45;12.55;;;5.30;;
74213;SDS011;62576;55.694;37.494;2024-01-25T03:46:15;14.90;;;4.72;;
74213;SDS011;62576;55.694;37.494;2024-01-25T03:48:45;13.32;;;5.07;;
74213;SDS011;62576;55.694;37.494;2024-01-25T03:51:15;12.48;;;5.22;;
74213;SDS011;62576;55.694;37.494;2024-01-25T03:53:45;15.35;;;5.00;;
74213;SDS011;62576;55.694;37.494;2024-01-25T03:56:16;14.70;;;5.35;;
74213;SDS011;62576;55.694;37.494;2024-01-25T03:58:45;14.80;;;5.10;;
74213;SDS011;62576;55.694;37.494;2024-01-25T04:01:15;14.35;;;5.22;;
74213;SDS011;62576;55.694;37.494;2024-01-25T04:03:45;9.93;;;4.22;;
74213;SDS011;62576;55.694;37.494;2024-01-25T04:06:15;14.95;;;5.38;;
74213;SDS011;62576;55.694;37.494;2024-01-25T04:08:46;13.38;;;4.85;;
74213;SDS011;62576;55.694;37.494;2024-01-25T04:11:16;13.88;;;4.30;;
74213;SDS011;62576;55.694;37.494;2024-01-25T04:13:45;13.77;;;5.38;;
74213;SDS011;62576;55.694;37.494;2024-01-25T04:16:15;14.43;;;5.07;;
74213;SDS011;62576;55.694;37.494;2024-01-25T04:18:45;16.60;;;5.60;;
74213;SDS011;62576;55.694;37.494;2024-01-25T04:21:15;12.48;;;4.63;;
74213;SDS011;62576;55.694;37.494;2024-01-25T04:23:47;15.43;;;5.43;;
74213;SDS011;62576;55.694;37.494;2024-01-25T04:26:16;12.38;;;4.63;;
74213;SDS011;62576;55.694;37.494;2024-01-25T04:28:48;12.80;;;4.47;;
74213;SDS011;62576;55.694;37.494;2024-01-25T04:31:17;12.77;;;4.60;;
74213;SDS011;62576;55.694;37.494;2024-01-25T04:33:48;15.40;;;5.15;;
74213;SDS011;62576;55.694;37.494;2024-01-25T04:36:18;12.13;;;4.78;;
74213;SDS011;62576;55.694;37.494;2024-01-25T04:38:49;12.00;;;4.90;;
74213;SDS011;62576;55.694;37.494;2024-01-25T04:41:19;12.25;;;4.97;;
74213;SDS011;62576;55.694;37.494;2024-01-25T04:43:49;15.32;;;5.45;;
74213;SDS011;62576;55.694;37.494;2024-01-25T04:46:19;12.68;;;4.28;;
74213;SDS011;62576;55.694;37.494;2024-01-25T04:48:49;13.65;;;4.97;;
74213;SDS011;62576;55.694;37.494;2024-01-25T04:51:19;12.20;;;5.07;;
74213;SDS011;62576;55.694;37.494;2024-01-25T04:53:50;11.57;;;4.07;;
74213;SDS011;62576;55.694;37.494;2024-01-25T04:56:20;12.73;;;4.60;;
74213;SDS011;62576;55.694;37.494;2024-01-25T04:58:50;10.88;;;3.88;;
74213;SDS011;62576;55.694;37.494;2024-01-25T05:01:20;14.10;;;5.47;;
74213;SDS011;62576;55.694;37.494;2024-01-25T05:03:50;13.40;;;5.15;;
74213;SDS011;62576;55.694;37.494;2024-01-25T05:06:19;17.45;;;5.35;;
74213;SDS011;62576;55.694;37.494;2024-01-25T05:08:51;13.50;;;4.55;;
74213;SDS011;62576;55.694;37.494;2024-01-25T05:11:21;13.00;;;4.82;;
74213;SDS011;62576;55.694;37.494;2024-01-25T05:13:51;14.40;;;5.68;;
74213;SDS011;62576;55.694;37.494;2024-01-25T05:16:20;13.02;;;5.03;;
74213;SDS011;62576;55.694;37.494;2024-01-25T05:18:50;13.93;;;5.00;;
74213;SDS011;62576;55.694;37.494;2024-01-25T05:21:20;14.88;;;5.65;;
74213;SDS011;62576;55.694;37.494;2024-01-25T05:23:51;11.93;;;4.93;;
74213;SDS011;62576;55.694;37.494;2024-01-25T05:26:21;13.27;;;5.40;;
74213;SDS011;62576;55.694;37.494;2024-01-25T05:28:51;14.02;;;4.85;;
74213;SDS011;62576;55.694;37.494;2024-01-25T05:31:21;13.73;;;4.85;;
74213;SDS011;62576;55.694;37.494;2024-01-25T05:33:51;12.35;;;5.00;;
74213;SDS011;62576;55.694;37.494;2024-01-25T05:36:21;14.73;;;5.18;;
74213;SDS011;62576;55.694;37.494;2024-01-25T05:38:55;11.80;;;4.55;;
74213;SDS011;62576;55.694;37.494;2024-01-25T05:41:25;13.30;;;5.18;;
74213;SDS011;62576;55.694;37.494;2024-01-25T05:43:55;12.38;;;5.03;;
74213;SDS011;62576;55.694;37.494;2024-01-25T05:46:25;13.85;;;5.03;;
74213;SDS011;62576;55.694;37.494;2024-01-25T05:48:55;17.20;;;5.90;;
74213;SDS011;62576;55.694;37.494;2024-01-25T05:51:24;14.70;;;5.50;;
74213;SDS011;62576;55.694;37.494;2024-01-25T05:53:56;16.35;;;5.97;;
74213;SDS011;62576;55.694;37.494;2024-01-25T05:56:25;12.75;;;5.03;;
74213;SDS011;62576;55.694;37.494;2024-01-25T05:58:55;13.32;;;5.57;;
74213;SDS011;62576;55.694;37.494;2024-01-25T06:01:25;15.05;;;5.35;;
74213;SDS011;62576;55.694;37.494;2024-01-25T06:03:55;15.38;;;5.18;;
74213;SDS011;62576;55.694;37.494;2024-01-25T06:06:25;12.93;;;5.28;;
74213;SDS011;62576;55.694;37.494;2024-01-25T06:08:56;16.05;;;5.65;;
74213;SDS011;62576;55.694;37.494;2024-01-25T06:11:26;13.93;;;5.50;;
74213;SDS011;62576;55.694;37.494;2024-01-25T06:13:56;18.55;;;5.13;;
74213;SDS011;62576;55.694;37.494;2024-01-25T06:16:26;12.18;;;4.25;;
74213;SDS011;62576;55.694;37.494;2024-01-25T06:18:55;12.88;;;4.90;;
74213;SDS011;62576;55.694;37.494;2024-01-25T06:21:26;15.00;;;5.40;;
74213;SDS011;62576;55.694;37.494;2024-01-25T06:23:58;16.92;;;6.40;;
74213;SDS011;62576;55.694;37.494;2024-01-25T06:26:28;12.32;;;4.85;;
74213;SDS011;62576;55.694;37.494;2024-01-25T06:28:58;16.23;;;5.35;;
74213;SDS011;62576;55.694;37.494;2024-01-25T06:31:27;16.65;;;6.30;;
74213;SDS011;62576;55.694;37.494;2024-01-25T06:34:04;17.08;;;5.63;;
74213;SDS011;62576;55.694;37.494;2024-01-25T06:36:33;15.18;;;5.45;;
74213;SDS011;62576;55.694;37.494;2024-01-25T06:39:05;13.82;;;4.95;;
74213;SDS011;62576;55.694;37.494;2024-01-25T06:41:32;14.85;;;5.93;;
74213;SDS011;62576;55.694;37.494;2024-01-25T06:44:02;16.38;;;5.80;;
74213;SDS011;62576;55.694;37.494;2024-01-25T06:46:32;15.00;;;5.18;;
74213;SDS011;62576;55.694;37.494;2024-01-25T06:49:02;15.68;;;5.93;;
74213;SDS011;62576;55.694;37.494;2024-01-25T06:51:32;13.85;;;5.32;;
74213;SDS011;62576;55.694;37.494;2024-01-25T06:54:02;13.63;;;5.85;;
74213;SDS011;62576;55.694;37.494;2024-01-25T06:56:34;18.50;;;6.28;;
74213;SDS011;62576;55.694;37.494;2024-01-25T06:59:04;16.88;;;6.22;;
74213;SDS011;62576;55.694;37.494;2024-01-25T07:01:34;15.60;;;5.95;;
74213;SDS011;62576;55.694;37.494;2024-01-25T07:04:04;18.15;;;6.05;;
74213;SDS011;62576;55.694;37.494;2024-01-25T07:06:34;17.88;;;6.50;;
74213;SDS011;62576;55.694;37.494;2024-01-25T07:09:04;17.85;;;6.30;;
74213;SDS011;62576;55.694;37.494;2024-01-25T07:11:35;12.95;;;5.38;;
74213;SDS011;62576;55.694;37.494;2024-01-25T07:14:05;19.20;;;6.15;;
74213;SDS011;62576;55.694;37.494;2024-01-25T07:16:35;17.35;;;6.03;;
74213;SDS011;62576;55.694;37.494;2024-01-25T07:19:05;16.88;;;5.78;;
74213;SDS011;62576;55.694;37.494;2024-01-25T07:21:35;14.07;;;5.63;;
74213;SDS011;62576;55.694;37.494;2024-01-25T07:24:05;16.20;;;6.20;;
74213;SDS011;62576;55.694;37.494;2024-01-25T07:26:36;17.20;;;6.32;;
74213;SDS011;62576;55.694;37.494;2024-01-25T07:29:06;19.25;;;6.72;;
74213;SDS011;62576;55.694;37.494;2024-01-25T07:31:36;18.95;;;6.68;;
74213;SDS011;62576;55.694;37.494;2024-01-25T07:34:06;17.42;;;6.63;;
74213;SDS011;62576;55.694;37.494;2024-01-25T07:36:36;15.25;;;5.38;;
74213;SDS011;62576;55.694;37.494;2024-01-25T07:39:06;20.90;;;6.20;;
74213;SDS011;62576;55.694;37.494;2024-01-25T07:41:37;16.38;;;6.40;;
74213;SDS011;62576;55.694;37.494;2024-01-25T07:44:07;17.50;;;5.78;;
74213;SDS011;62576;55.694;37.494;2024-01-25T07:46:38;17.13;;;6.38;;
74213;SDS011;62576;55.694;37.494;2024-01-25T07:51:53;18.42;;;6.35;;
74213;SDS011;62576;55.694;37.494;2024-01-25T07:54:24;14.80;;;6.32;;
74213;SDS011;62576;55.694;37.494;2024-01-25T07:56:56;18.35;;;6.25;;
74213;SDS011;62576;55.694;37.494;2024-01-25T07:59:25;14.93;;;6.00;;
74213;SDS011;62576;55.694;37.494;2024-01-25T08:01:55;14.88;;;5.57;;
74213;SDS011;62576;55.694;37.494;2024-01-25T08:04:25;18.42;;;5.95;;
74213;SDS011;62576;55.694;37.494;2024-01-25T08:06:55;14.90;;;5.75;;
74213;SDS011;62576;55.694;37.494;2024-01-25T08:09:25;15.63;;;5.93;;
74213;SDS011;62576;55.694;37.494;2024-01-25T08:11:56;17.77;;;6.57;;
74213;SDS011;62576;55.694;37.494;2024-01-25T08:14:26;16.95;;;6.22;;
74213;SDS011;62576;55.694;37.494;2024-01-25T08:16:56;16.83;;;6.93;;
74213;SDS011;62576;55.694;37.494;2024-01-25T08:19:46;15.32;;;5.82;;
74213;SDS011;62576;55.694;37.494;2024-01-25T08:22:16;16.02;;;6.65;;
74213;SDS011;62576;55.694;37.494;2024-01-25T08:24:46;14.93;;;5.68;;
74213;SDS011;62576;55.694;37.494;2024-01-25T08:27:20;14.32;;;5.38;;
74213;SDS011;62576;55.694;37.494;2024-01-25T08:29:50;15.25;;;6.22;;
74213;SDS011;62576;55.694;37.494;2024-01-25T08:32:20;16.40;;;6.47;;
74213;SDS011;62576;55.694;37.494;2024-01-25T08:34:50;14.63;;;6.43;;
74213;SDS011;62576;55.694;37.494;2024-01-25T08:37:20;17.83;;;6.20;;
74213;SDS011;62576;55.694;37.494;2024-01-25T08:39:50;14.90;;;5.53;;
74213;SDS011;62576;55.694;37.494;2024-01-25T08:42:17;16.48;;;5.30;;
74213;SDS011;62576;55.694;37.494;2024-01-25T08:44:47;14.55;;;4.55;;
74213;SDS011;62576;55.694;37.494;2024-01-25T08:47:18;13.77;;;5.60;;
74213;SDS011;62576;55.694;37.494;2024-01-25T08:49:51;13.93;;;5.68;;
74213;SDS011;62576;55.694;37.494;2024-01-25T08:52:21;14.88;;;5.70;;
74213;SDS011;62576;55.694;37.494;2024-01-25T08:54:51;16.13;;;6.00;;
74213;SDS011;62576;55.694;37.494;2024-01-25T08:57:21;11.18;;;4.15;;
74213;SDS011;62576;55.694;37.494;2024-01-25T08:59:56;17.60;;;6.53;;
74213;SDS011;62576;55.694;37.494;2024-01-25T09:02:26;16.10;;;5.82;;
74213;SDS011;62576;55.694;37.494;2024-01-25T09:05:00;15.00;;;5.47;;
74213;SDS011;62576;55.694;37.494;2024-01-25T09:07:30;11.88;;;4.80;;
74213;SDS011;62576;55.694;37.494;2024-01-25T09:10:00;13.35;;;5.38;;
74213;SDS011;62576;55.694;37.494;2024-01-25T09:12:34;13.70;;;5.60;;
74213;SDS011;62576;55.694;37.494;2024-01-25T09:15:06;11.88;;;5.32;;
74213;SDS011;62576;55.694;37.494;2024-01-25T09:17:36;17.92;;;6.05;;
74213;SDS011;62576;55.694;37.494;2024-01-25T09:20:06;15.57;;;5.45;;
74213;SDS011;62576;55.694;37.494;2024-01-25T09:22:37;15.40;;;5.90;;
74213;SDS011;62576;55.694;37.494;2024-01-25T09:25:07;16.83;;;6.07;;
74213;SDS011;62576;55.694;37.494;2024-01-25T09:27:36;19.17;;;6.90;;
74213;SDS011;62576;55.694;37.494;2024-01-25T09:30:11;17.60;;;5.20;;
74213;SDS011;62576;55.694;37.494;2024-01-25T09:32:41;15.40;;;5.45;;
74213;SDS011;62576;55.694;37.494;2024-01-25T09:35:11;18.92;;;5.90;;
74213;SDS011;62576;55.694;37.494;2024-01-25T09:37:41;14.43;;;5.63;;
74213;SDS011;62576;55.694;37.494;2024-01-25T09:40:11;13.60;;;4.60;;
74213;SDS011;62576;55.694;37.494;2024-01-25T09:42:38;16.23;;;6.07;;
74213;SDS011;62576;55.694;37.494;2024-01-25T09:45:08;13.73;;;4.97;;
74213;SDS011;62576;55.694;37.494;2024-01-25T09:47:42;14.30;;;5.28;;
74213;SDS011;62576;55.694;37.494;2024-01-25T09:50:12;15.30;;;5.20;;
74213;SDS011;62576;55.694;37.494;2024-01-25T09:52:43;16.70;;;5.15;;
74213;SDS011;62576;55.694;37.494;2024-01-25T09:55:16;12.68;;;5.20;;
74213;SDS011;62576;55.694;37.494;2024-01-25T09:57:47;11.23;;;5.28;;
74213;SDS011;62576;55.694;37.494;2024-01-25T10:00:18;14.98;;;5.45;;
74213;SDS011;62576;55.694;37.494;2024-01-25T10:02:49;10.98;;;4.60;;
74213;SDS011;62576;55.694;37.494;2024-01-25T10:05:19;18.38;;;5.88;;
74213;SDS011;62576;55.694;37.494;2024-01-25T10:07:49;14.75;;;5.75;;
74213;SDS011;62576;55.694;37.494;2024-01-25T10:10:19;16.20;;;6.13;;
74213;SDS011;62576;55.694;37.494;2024-01-25T10:12:49;16.02;;;5.32;;
74213;SDS011;62576;55.694;37.494;2024-01-25T10:15:19;13.68;;;5.60;;
74213;SDS011;62576;55.694;37.494;2024-01-25T10:17:50;12.18;;;5.10;;
74213;SDS011;62576;55.694;37.494;2024-01-25T10:20:20;13.40;;;5.25;;
74213;SDS011;62576;55.694;37.494;2024-01-25T10:22:52;17.13;;;5.78;;
74213;SDS011;62576;55.694;37.494;2024-01-25T10:25:22;15.55;;;5.65;;
74213;SDS011;62576;55.694;37.494;2024-01-25T10:27:52;13.70;;;5.57;;
74213;SDS011;62576;55.694;37.494;2024-01-25T10:30:22;17.67;;;6.07;;
74213;SDS011;62576;55.694;37.494;2024-01-25T10:32:54;14.05;;;5.55;;
74213;SDS011;62576;55.694;37.494;2024-01-25T10:35:24;13.43;;;5.75;;
74213;SDS011;62576;55.694;37.494;2024-01-25T10:37:54;14.30;;;5.43;;
74213;SDS011;62576;55.694;37.494;2024-01-25T10:40:25;12.20;;;5.38;;
74213;SDS011;62576;55.694;37.494;2024-01-25T10:42:52;15.55;;;5.90;;
74213;SDS011;62576;55.694;37.494;2024-01-25T10:45:22;14.18;;;5.68;;
74213;SDS011;62576;55.694;37.494;2024-01-25T10:47:54;15.48;;;5.97;;
74213;SDS011;62576;55.694;37.494;2024-01-25T10:50:24;17.27;;;5.32;;
74213;SDS011;62576;55.694;37.494;2024-01-25T10:52:54;14.18;;;6.38;;
74213;SDS011;62576;55.694;37.494;2024-01-25T10:55:24;13.20;;;5.55;;
74213;SDS011;62576;55.694;37.494;2024-01-25T10:57:54;14.27;;;5.68;;
74213;SDS011;62576;55.694;37.494;2024-01-25T11:00:24;14.73;;;5.57;;
74213;SDS011;62576;55.694;37.494;2024-01-25T11:02:55;16.02;;;5.53;;
74213;SDS011;62576;55.694;37.494;2024-01-25T11:05:25;18.20;;;6.15;;
74213;SDS011;62576;55.694;37.494;2024-01-25T11:07:55;13.65;;;5.40;;
74213;SDS011;62576;55.694;37.494;2024-01-25T11:10:25;12.30;;;5.63;;
74213;SDS011;62576;55.694;37.494;2024-01-25T11:12:55;13.70;;;5.43;;
74213;SDS011;62576;55.694;37.494;2024-01-25T11:15:29;15.10;;;6.18;;
74213;SDS011;62576;55.694;37.494;2024-01-25T11:18:01;14.00;;;5.57;;
74213;SDS011;62576;55.694;37.494;2024-01-25T11:20:38;17.48;;;5.38;;
74213;SDS011;62576;55.694;37.494;2024-01-25T11:23:11;14.15;;;5.60;;
74213;SDS011;62576;55.694;37.494;2024-01-25T11:25:44;14.63;;;6.05;;
74213;SDS011;62576;55.694;37.494;2024-01-25T11:28:14;15.32;;;5.95;;
74213;SDS011;62576;55.694;37.494;2024-01-25T11:30:45;17.42;;;6.25;;
74213;SDS011;62576;55.694;37.494;2024-01-25T11:33:17;15.00;;;6.00;;
74213;SDS011;62576;55.694;37.494;2024-01-25T11:35:53;18.00;;;6.30;;
74213;SDS011;62576;55.694;37.494;2024-01-25T11:38:23;13.30;;;5.30;;
74213;SDS011;62576;55.694;37.494;2024-01-25T11:40:56;15.85;;;6.18;;
74213;SDS011;62576;55.694;37.494;2024-01-25T11:43:26;20.15;;;5.90;;
74213;SDS011;62576;55.694;37.494;2024-01-25T11:45:56;15.77;;;6.07;;
74213;SDS011;62576;55.694;37.494;2024-01-25T11:48:28;16.35;;;6.38;;
74213;SDS011;62576;55.694;37.494;2024-01-25T11:50:59;16.58;;;6.47;;
74213;SDS011;62576;55.694;37.494;2024-01-25T11:53:29;13.82;;;5.50;;
74213;SDS011;62576;55.694;37.494;2024-01-25T11:55:59;17.15;;;5.90;;
74213;SDS011;62576;55.694;37.494;2024-01-25T11:58:28;16.85;;;6.30;;
74213;SDS011;62576;55.694;37.494;2024-01-25T12:00:58;17.48;;;6.68;;
74213;SDS011;62576;55.694;37.494;2024-01-25T12:03:30;16.90;;;6.15;;
74213;SDS011;62576;55.694;37.494;2024-01-25T12:06:00;14.90;;;6.03;;
74213;SDS011;62576;55.694;37.494;2024-01-25T12:08:29;17.90;;;6.18;;
74213;SDS011;62576;55.694;37.494;2024-01-25T12:11:03;18.80;;;6.65;;
74213;SDS011;62576;55.694;37.494;2024-01-25T12:13:34;14.65;;;6.07;;
74213;SDS011;62576;55.694;37.494;2024-01-25T12:16:04;18.75;;;6.68;;
74213;SDS011;62576;55.694;37.494;2024-01-25T12:18:36;18.60;;;6.75;;
74213;SDS011;62576;55.694;37.494;2024-01-25T12:21:06;14.82;;;5.85;;
74213;SDS011;62576;55.694;37.494;2024-01-25T12:23:36;16.88;;;6.38;;
74213;SDS011;62576;55.694;37.494;2024-01-25T12:26:07;16.17;;;6.30;;
74213;SDS011;62576;55.694;37.494;2024-01-25T12:28:37;14.90;;;6.10;;
74213;SDS011;62576;55.694;37.494;2024-01-25T12:31:07;13.00;;;5.55;;
74213;SDS011;62576;55.694;37.494;2024-01-25T12:33:41;16.20;;;6.30;;
74213;SDS011;62576;55.694;37.494;2024-01-25T12:36:11;13.23;;;5.72;;
74213;SDS011;62576;55.694;37.494;2024-01-25T12:38:40;14.38;;;5.95;;
74213;SDS011;62576;55.694;37.494;2024-01-25T12:41:10;21.23;;;6.72;;
74213;SDS011;62576;55.694;37.494;2024-01-25T12:43:40;18.60;;;6.85;;
74213;SDS011;62576;55.694;37.494;2024-01-25T12:46:12;17.38;;;6.68;;
74213;SDS011;62576;55.694;37.494;2024-01-25T12:48:46;17.92;;;6.30;;
74213;SDS011;62576;55.694;37.494;2024-01-25T12:51:15;19.85;;;6.97;;
74213;SDS011;62576;55.694;37.494;2024-01-25T12:53:45;18.30;;;6.80;;
74213;SDS011;62576;55.694;37.494;2024-01-25T12:56:15;16.08;;;6.10;;
74213;SDS011;62576;55.694;37.494;2024-01-25T12:58:45;17.42;;;6.88;;
74213;SDS011;62576;55.694;37.494;2024-01-25T13:01:15;16.85;;;6.72;;
74213;SDS011;62576;55.694;37.494;2024-01-25T13:03:46;20.67;;;6.82;;
74213;SDS011;62576;55.694;37.494;2024-01-25T13:06:16;18.60;;;6.47;;
74213;SDS011;62576;55.694;37.494;2024-01-25T13:08:46;16.88;;;6.63;;
74213;SDS011;62576;55.694;37.494;2024-01-25T13:11:17;23.60;;;7.00;;
74213;SDS011;62576;55.694;37.494;2024-01-25T13:13:46;19.77;;;6.80;;
74213;SDS011;62576;55.694;37.494;2024-01-25T13:16:16;19.00;;;6.95;;
74213;SDS011;62576;55.694;37.494;2024-01-25T13:18:47;20.95;;;7.05;;
74213;SDS011;62576;55.694;37.494;2024-01-25T13:21:17;17.40;;;6.90;;
74213;SDS011;62576;55.694;37.494;2024-01-25T13:23:47;20.13;;;7.15;;
74213;SDS011;62576;55.694;37.494;2024-01-25T13:26:17;19.63;;;6.93;;
74213;SDS011;62576;55.694;37.494;2024-01-25T13:28:47;18.90;;;7.78;;
74213;SDS011;62576;55.694;37.494;2024-01-25T13:31:17;20.90;;;8.68;;
74213;SDS011;62576;55.694;37.494;2024-01-25T13:33:48;20.52;;;8.00;;
74213;SDS011;62576;55.694;37.494;2024-01-25T13:36:18;20.48;;;7.32;;
74213;SDS011;62576;55.694;37.494;2024-01-25T13:38:48;20.35;;;8.07;;
74213;SDS011;62576;55.694;37.494;2024-01-25T13:41:18;26.30;;;8.55;;
74213;SDS011;62576;55.694;37.494;2024-01-25T13:43:48;20.83;;;7.47;;
74213;SDS011;62576;55.694;37.494;2024-01-25T13:46:18;25.10;;;9.18;;
74213;SDS011;62576;55.694;37.494;2024-01-25T13:48:49;26.42;;;8.35;;
74213;SDS011;62576;55.694;37.494;2024-01-25T13:51:19;25.45;;;9.50;;
74213;SDS011;62576;55.694;37.494;2024-01-25T13:53:49;27.20;;;9.30;;
74213;SDS011;62576;55.694;37.494;2024-01-25T13:56:18;23.27;;;9.32;;
74213;SDS011;62576;55.694;37.494;2024-01-25T13:58:48;24.30;;;9.43;;
74213;SDS011;62576;55.694;37.494;2024-01-25T14:01:19;25.13;;;10.05;;
74213;SDS011;62576;55.694;37.494;2024-01-25T14:03:50;25.92;;;10.02;;
74213;SDS011;62576;55.694;37.494;2024-01-25T14:06:20;25.48;;;10.15;;
74213;SDS011;62576;55.694;37.494;2024-01-25T14:08:50;24.77;;;9.93;;
74213;SDS011;62576;55.694;37.494;2024-01-25T14:11:20;25.52;;;10.02;;
74213;SDS011;62576;55.694;37.494;2024-01-25T14:13:49;27.45;;;9.98;;
74213;SDS011;62576;55.694;37.494;2024-01-25T14:16:19;28.20;;;10.52;;
74213;SDS011;62576;55.694;37.494;2024-01-25T14:18:51;28.35;;;10.73;;
74213;SDS011;62576;55.694;37.494;2024-01-25T14:21:20;27.30;;;10.52;;
74213;SDS011;62576;55.694;37.494;2024-01-25T14:23:50;32.08;;;11.10;;
74213;SDS011;62576;55.694;37.494;2024-01-25T14:26:20;24.65;;;9.77;;
74213;SDS011;62576;55.694;37.494;2024-01-25T14:28:50;25.70;;;10.07;;
74213;SDS011;62576;55.694;37.494;2024-01-25T14:31:20;29.90;;;10.60;;
74213;SDS011;62576;55.694;37.494;2024-01-25T14:33:51;30.30;;;10.88;;
74213;SDS011;62576;55.694;37.494;2024-01-25T14:36:21;27.92;;;10.95;;
74213;SDS011;62576;55.694;37.494;2024-01-25T14:38:51;29.15;;;10.48;;
74213;SDS011;62576;55.694;37.494;2024-01-25T14:41:21;28.58;;;11.18;;